createdAt,value
2023-02-11T00:05:25.328Z,17.80
2023-02-11T00:09:31.738Z,17.20
2023-02-11T00:13:35.600Z,16.20
2023-02-11T00:17:39.224Z,14.80
2023-02-11T00:26:33.325Z,17.50
2023-02-11T00:30:40.964Z,19.90
2023-02-11T00:34:44.601Z,16.00
2023-02-11T00:38:50.364Z,18.50
2023-02-11T00:42:20.649Z,20.20
2023-02-11T00:46:06.727Z,16.90
2023-02-11T00:49:49.635Z,18.70
2023-02-11T00:54:07.758Z,17.80
2023-02-11T00:57:52.407Z,17.30
2023-02-11T01:01:44.947Z,20.30
2023-02-11T01:05:53.614Z,18.70
2023-02-11T01:14:33.163Z,18.50
2023-02-11T01:18:32.145Z,17.00
2023-02-11T01:22:47.700Z,17.40
2023-02-11T01:26:41.301Z,20.80
2023-02-11T01:30:34.919Z,18.90
2023-02-11T01:34:37.375Z,15.20
2023-02-11T01:38:41.387Z,16.60
2023-02-11T01:42:51.145Z,17.50
2023-02-11T01:47:07.740Z,19.40
2023-02-11T01:51:01.300Z,18.70
2023-02-11T01:54:46.022Z,16.20
2023-02-11T01:58:34.180Z,15.10
2023-02-11T02:02:27.846Z,18.30
2023-02-11T02:06:40.769Z,18.50
2023-02-11T02:10:44.900Z,19.70
2023-02-11T02:14:24.262Z,17.40
2023-02-11T02:18:27.842Z,18.10
2023-02-11T02:22:35.293Z,21.30
2023-02-11T02:26:37.325Z,19.20
2023-02-11T02:30:56.495Z,17.20
2023-02-11T02:34:50.635Z,17.80
2023-02-11T02:38:54.550Z,17.70
2023-02-11T02:42:51.131Z,19.10
2023-02-11T02:46:40.608Z,18.70
2023-02-11T02:50:35.489Z,19.60
2023-02-11T02:54:38.844Z,18.40
2023-02-11T02:58:46.975Z,20.80
2023-02-11T03:02:50.598Z,19.50
2023-02-11T03:06:54.286Z,18.40
2023-02-11T03:10:45.406Z,18.50
2023-02-11T03:18:15.231Z,19.30
2023-02-11T03:22:08.922Z,18.50
2023-02-11T03:26:12.483Z,17.70
2023-02-11T03:30:14.506Z,18.90
2023-02-11T03:34:26.550Z,19.50
2023-02-11T03:38:20.092Z,21.40
2023-02-11T03:42:23.673Z,19.30
2023-02-11T03:46:08.415Z,18.00
2023-02-11T03:54:56.707Z,18.40
2023-02-11T03:58:36.222Z,16.40
2023-02-11T04:02:15.513Z,20.40
2023-02-11T04:06:11.983Z,18.40
2023-02-11T04:10:15.982Z,19.70
2023-02-11T04:14:37.870Z,18.60
2023-02-11T04:18:41.528Z,18.40
2023-02-11T04:22:36.361Z,20.20
2023-02-11T04:26:44.339Z,21.10
2023-02-11T04:30:40.553Z,17.90
2023-02-11T04:34:32.846Z,20.40
2023-02-11T04:38:26.774Z,20.50
2023-02-11T04:47:19.165Z,18.00
2023-02-11T04:51:21.827Z,17.70
2023-02-11T04:55:29.647Z,17.70
2023-02-11T04:59:19.089Z,19.20
2023-02-11T05:03:36.628Z,20.60
2023-02-11T05:07:40.602Z,19.70
2023-02-11T05:11:35.749Z,21.10
2023-02-11T05:20:03.744Z,22.00
2023-02-11T05:23:19.724Z,21.30
2023-02-11T05:27:28.360Z,23.20
2023-02-11T05:31:15.039Z,23.00
2023-02-11T05:34:53.086Z,23.00
2023-02-11T05:38:56.661Z,23.30
2023-02-11T05:43:18.960Z,20.90
2023-02-11T05:47:14.925Z,21.60
2023-02-11T05:50:58.287Z,23.30
2023-02-11T05:55:01.868Z,21.60
2023-02-11T05:58:48.962Z,20.00
2023-02-11T06:03:01.579Z,19.50
2023-02-11T06:07:05.352Z,21.80
2023-02-11T06:10:45.353Z,21.00
2023-02-11T06:15:03.044Z,21.90
2023-02-11T06:19:06.741Z,24.10
2023-02-11T06:23:10.324Z,23.50
2023-02-11T06:27:18.525Z,22.20
2023-02-11T06:31:15.283Z,22.60
2023-02-11T06:35:18.957Z,19.80
2023-02-11T06:39:14.130Z,22.50
2023-02-11T06:43:17.741Z,23.20
2023-02-11T06:47:21.369Z,22.90
2023-02-11T06:51:24.956Z,23.80
2023-02-11T07:00:20.483Z,23.60
2023-02-11T07:04:04.062Z,21.10
2023-02-11T07:08:07.692Z,24.00
2023-02-11T07:11:49.892Z,21.30
2023-02-11T07:20:38.760Z,25.30
2023-02-11T07:24:48.563Z,25.00
2023-02-11T07:28:52.586Z,24.70
2023-02-11T07:32:44.012Z,23.60
2023-02-11T07:40:57.429Z,25.80
2023-02-11T07:44:39.963Z,27.30
2023-02-11T07:48:36.492Z,25.50
2023-02-11T07:52:41.094Z,24.80
2023-02-11T07:56:37.485Z,23.50
2023-02-11T08:00:41.191Z,24.90
2023-02-11T08:04:45.365Z,24.20
2023-02-11T08:08:55.734Z,21.50
2023-02-11T08:12:59.868Z,23.70
2023-02-11T08:17:01.681Z,20.40
2023-02-11T08:21:05.338Z,20.20
2023-02-11T08:25:18.251Z,21.50
2023-02-11T08:29:14.726Z,23.10
2023-02-11T08:32:48.568Z,27.20
2023-02-11T08:36:05.127Z,24.00
2023-02-11T08:40:01.479Z,22.80
2023-02-11T08:44:16.029Z,25.90
2023-02-11T08:48:08.385Z,23.60
2023-02-11T08:52:27.215Z,22.70
2023-02-11T08:56:26.252Z,24.30
2023-02-11T09:00:23.694Z,22.80
2023-02-11T09:04:27.303Z,21.10
2023-02-11T09:08:30.929Z,23.80
2023-02-11T09:12:13.522Z,22.70
2023-02-11T09:16:09.854Z,21.40
2023-02-11T09:19:51.677Z,20.80
2023-02-11T09:23:51.396Z,21.60
2023-02-11T09:27:55.143Z,19.10
2023-02-11T09:31:51.728Z,20.60
2023-02-11T09:35:46.882Z,21.60
2023-02-11T09:39:37.199Z,20.40
2023-02-11T09:43:40.119Z,21.50
2023-02-11T09:47:46.870Z,23.00
2023-02-11T09:51:47.546Z,19.50
2023-02-11T09:55:57.750Z,23.30
2023-02-11T09:59:51.548Z,23.60
2023-02-11T10:03:51.229Z,20.80
2023-02-11T10:07:54.849Z,21.20
2023-02-11T10:11:59.671Z,22.00
2023-02-11T10:16:15.925Z,19.80
2023-02-11T10:20:20.130Z,16.50
2023-02-11T10:24:24.099Z,19.90
2023-02-11T10:28:28.228Z,19.40
2023-02-11T10:32:41.121Z,17.20
2023-02-11T10:36:44.766Z,20.30
2023-02-11T10:40:44.084Z,20.70
2023-02-11T10:44:47.739Z,19.80
2023-02-11T10:48:55.448Z,19.90
2023-02-11T10:57:39.571Z,18.80
2023-02-11T11:02:00.619Z,19.40
2023-02-11T11:11:05.476Z,17.30
2023-02-11T11:15:08.175Z,19.50
2023-02-11T11:19:11.909Z,18.00
2023-02-11T11:23:21.562Z,20.20
2023-02-11T11:27:29.043Z,19.40
2023-02-11T11:31:32.753Z,17.90
2023-02-11T11:35:41.141Z,16.40
2023-02-11T11:39:50.689Z,16.90
2023-02-11T11:48:45.411Z,14.60
2023-02-11T11:53:04.885Z,14.80
2023-02-11T11:57:17.801Z,14.10
2023-02-11T12:01:11.420Z,15.40
2023-02-11T12:05:18.036Z,15.60
2023-02-11T12:09:29.870Z,14.10
2023-02-11T12:13:44.688Z,17.40
2023-02-11T12:18:13.005Z,15.60
2023-02-11T12:22:28.878Z,14.70
2023-02-11T12:26:47.787Z,16.70
2023-02-11T12:30:57.198Z,14.00
2023-02-11T12:35:13.824Z,14.10
2023-02-11T12:39:20.293Z,15.80
2023-02-11T12:43:37.494Z,14.30
2023-02-11T12:47:55.522Z,15.50
2023-02-11T12:52:11.344Z,12.70
2023-02-11T12:56:19.965Z,14.50
2023-02-11T13:00:32.833Z,15.60
2023-02-11T13:04:41.217Z,13.60
2023-02-11T13:08:44.800Z,11.80
2023-02-11T13:12:47.025Z,12.10
2023-02-11T13:17:15.182Z,12.00
2023-02-11T13:21:41.942Z,12.50
2023-02-11T13:25:55.138Z,14.50
2023-02-11T13:30:04.431Z,12.80
2023-02-11T13:34:17.262Z,14.50
2023-02-11T13:38:10.255Z,15.50
2023-02-11T13:42:39.209Z,14.20
2023-02-11T13:46:18.913Z,12.70
2023-02-11T13:50:19.654Z,13.50
2023-02-11T13:54:26.003Z,12.20
2023-02-11T13:58:19.741Z,11.90
2023-02-11T14:02:46.253Z,12.20
2023-02-11T14:06:48.328Z,11.30
2023-02-11T14:10:51.188Z,10.90
2023-02-11T14:14:42.878Z,12.30
2023-02-11T14:18:45.053Z,10.10
2023-02-11T14:22:48.654Z,10.90
2023-02-11T14:31:36.244Z,10.10
2023-02-11T14:35:49.603Z,10.30
2023-02-11T14:40:15.208Z,11.60
2023-02-11T14:44:26.114Z,10.00
2023-02-11T14:48:35.319Z,9.80
2023-02-11T14:52:39.370Z,10.40
2023-02-11T14:56:43.044Z,8.20
2023-02-11T15:00:41.979Z,8.50
2023-02-11T15:04:46.571Z,9.00
2023-02-11T15:08:34.941Z,8.20
2023-02-11T15:12:41.508Z,9.10
2023-02-11T15:16:36.313Z,9.80
2023-02-11T15:20:35.300Z,10.00
2023-02-11T15:24:44.987Z,9.70
2023-02-11T15:28:48.606Z,9.30
2023-02-11T15:33:00.804Z,8.70
2023-02-11T15:40:35.716Z,8.80
2023-02-11T15:44:42.444Z,8.60
2023-02-11T15:48:43.095Z,8.70
2023-02-11T15:52:28.007Z,8.10
2023-02-11T15:56:31.616Z,9.40
2023-02-11T16:00:31.174Z,9.50
2023-02-11T16:04:29.780Z,8.60
2023-02-11T16:08:42.168Z,8.90
2023-02-11T16:13:03.827Z,9.80
2023-02-11T16:17:16.442Z,8.10
2023-02-11T16:21:20.576Z,8.20
2023-02-11T16:25:31.034Z,8.30
2023-02-11T16:29:24.574Z,8.50
2023-02-11T16:33:08.956Z,8.60
2023-02-11T16:37:17.404Z,8.20
2023-02-11T16:41:20.964Z,7.50
2023-02-11T16:45:40.220Z,8.10
2023-02-11T16:49:29.063Z,7.20
2023-02-11T16:53:32.701Z,6.50
2023-02-11T16:57:36.303Z,7.40
2023-02-11T17:01:45.961Z,7.30
2023-02-11T17:05:57.836Z,6.00
2023-02-11T17:09:44.413Z,7.40
2023-02-11T17:13:47.990Z,7.40
2023-02-11T17:17:45.064Z,7.30
2023-02-11T17:21:41.975Z,7.20
2023-02-11T17:25:39.757Z,6.60
2023-02-11T17:29:23.476Z,6.60
2023-02-11T17:33:31.444Z,6.70
2023-02-11T17:37:34.993Z,6.20
2023-02-11T17:41:25.235Z,6.60
2023-02-11T17:45:27.964Z,7.10
2023-02-11T17:49:32.140Z,7.10
2023-02-11T17:53:36.246Z,6.90
2023-02-11T17:57:26.594Z,7.40
2023-02-11T18:01:21.636Z,7.20
2023-02-11T18:04:58.779Z,7.80
2023-02-11T18:08:45.276Z,7.80
2023-02-11T18:12:31.528Z,7.40
2023-02-11T18:17:32.036Z,7.80
